Time;durP1;ratioP1;P1;durP2;ratioP2;P2;SDS_P1;SDS_P2;PMS_P1;PMS_P2;Temp;Humidity;BMP_temperature;BMP_pressure;BME280_temperature;BME280_humidity;BME280_pressure;Samples;Min_cycle;Max_cycle;Signal;HPM_P1;HPM_P2
2021/07/15 00:00:34;;;;;;;0.00;0.00;;;19.90;91.80;19.30;101066.00;;;;5006037;28;20618;-83
2021/07/15 00:03:08;;;;;;;0.20;0.13;;;19.90;91.70;19.40;101070.00;;;;4982848;28;20111;-82
2021/07/15 00:05:36;;;;;;;0.47;0.30;;;19.90;91.40;19.40;101071.00;;;;5014599;28;20045;-83
2021/07/15 00:08:06;;;;;;;0.85;0.38;;;19.90;91.40;19.30;101066.00;;;;4998650;28;20045;-83
2021/07/15 00:10:37;;;;;;;0.15;0.15;;;19.90;91.50;19.30;101068.00;;;;4999091;28;20051;-83
2021/07/15 00:13:05;;;;;;;2.65;0.70;;;19.90;91.70;19.30;101064.00;;;;4991858;28;20084;-83
2021/07/15 00:15:35;;;;;;;0.00;0.00;;;19.90;91.70;19.30;101069.00;;;;5034688;28;20051;-83
2021/07/15 00:18:04;;;;;;;0.00;0.00;;;19.80;91.60;19.30;101065.00;;;;5036722;28;20128;-83
2021/07/15 00:20:36;;;;;;;0.00;0.00;;;19.90;91.60;19.30;101058.00;;;;5002349;28;20596;-83
2021/07/15 00:23:03;;;;;;;0.30;0.30;;;19.90;91.60;19.30;101060.00;;;;5015332;28;20045;-83
2021/07/15 00:25:29;;;;;;;;;;;19.80;91.50;19.20;101057.00;;;;5002907;28;20620;-83
2021/07/15 00:27:55;;;;;;;0.22;0.22;;;19.80;91.70;19.20;101065.00;;;;5023072;28;19917;-83
2021/07/15 00:30:21;;;;;;;0.10;0.10;;;19.80;91.80;19.20;101067.00;;;;5040040;28;20048;-83
2021/07/15 00:32:47;;;;;;;1.73;0.50;;;19.80;92.00;19.20;101061.00;;;;5010027;28;20709;-83
2021/07/15 00:35:14;;;;;;;0.10;0.10;;;19.70;91.80;19.10;101050.00;;;;5045419;28;20045;-84
2021/07/15 00:37:42;;;;;;;0.03;0.03;;;19.70;91.60;19.10;101059.00;;;;5020973;28;20417;-83
2021/07/15 00:40:11;;;;;;;0.00;0.00;;;19.70;91.50;19.10;101052.00;;;;5019450;28;20525;-82
2021/07/15 00:42:37;;;;;;;0.08;0.08;;;19.70;91.70;19.10;101062.00;;;;5019992;28;20509;-82
2021/07/15 00:45:07;;;;;;;0.00;0.00;;;19.70;91.70;19.10;101057.00;;;;5006532;28;20041;-82
2021/07/15 00:47:34;;;;;;;0.10;0.10;;;19.70;91.80;19.10;101055.00;;;;5019817;28;20053;-82
2021/07/15 00:50:00;;;;;;;0.00;0.00;;;;;19.10;101060.00;;;;5019640;28;20437;-82
2021/07/15 00:52:27;;;;;;;0.00;0.00;;;;;19.10;101053.00;;;;5037668;28;20170;-82
2021/07/15 00:54:53;;;;;;;0.00;0.00;;;19.70;92.00;19.10;101048.00;;;;5030663;28;20547;-82
2021/07/15 00:57:19;;;;;;;0.77;0.28;;;19.70;91.90;19.10;101039.00;;;;5025551;28;20100;-82
2021/07/15 00:59:47;;;;;;;0.10;0.10;;;19.60;92.20;19.10;101056.00;;;;5022052;28;20192;-82
2021/07/15 01:02:13;;;;;;;0.15;0.15;;;19.70;91.80;19.10;101057.00;;;;5021809;28;20566;-82
2021/07/15 01:04:41;;;;;;;;;;;19.70;91.90;19.10;101062.00;;;;5042466;28;20173;-81
2021/07/15 01:07:07;;;;;;;0.10;0.10;;;19.70;91.80;19.10;101051.00;;;;5040892;28;20007;-82
2021/07/15 01:09:33;;;;;;;0.30;0.20;;;19.60;91.60;19.00;101054.00;;;;4997369;28;20121;-82
2021/07/15 01:12:01;;;;;;;0.10;0.10;;;19.60;91.80;19.00;101069.00;;;;5037323;28;20037;-81
2021/07/15 01:14:35;;;;;;;0.00;0.00;;;19.60;91.80;19.00;101059.00;;;;5024863;28;20049;-82
2021/07/15 01:17:10;;;;;;;0.20;0.20;;;19.60;91.60;19.00;101062.00;;;;5022312;28;20045;-82
2021/07/15 01:20:04;;;;;;;0.20;0.20;;;19.60;91.60;19.00;101068.00;;;;4991598;28;20041;-84
2021/07/15 01:23:09;;;;;;;0.00;0.00;;;19.60;91.80;19.00;101073.00;;;;5026831;28;20087;-83
2021/07/15 01:26:18;;;;;;;0.47;0.47;;;19.60;91.80;19.00;101057.00;;;;5010804;28;20396;-82
2021/07/15 01:29:30;;;;;;;0.30;0.20;;;19.60;91.90;19.00;101068.00;;;;5040933;28;20049;-83
2021/07/15 01:32:01;;;;;;;3.63;0.30;;;19.50;91.70;19.00;101056.00;;;;5028130;28;20052;-83
2021/07/15 01:34:28;;;;;;;0.10;0.10;;;19.50;91.80;18.90;101056.00;;;;5030289;28;20049;-82
2021/07/15 01:36:56;;;;;;;0.00;0.00;;;19.50;91.70;18.90;101060.00;;;;5008906;28;20528;-82
2021/07/15 01:39:29;;;;;;;0.17;0.17;;;19.40;91.80;18.90;101046.00;;;;5013367;28;20033;-82
2021/07/15 01:42:04;;;;;;;0.20;0.17;;;19.50;91.90;18.90;101046.00;;;;5009242;28;20046;-82
2021/07/15 01:44:31;;;;;;;0.25;0.25;;;19.50;91.90;18.90;101049.00;;;;5024642;28;20605;-82
2021/07/15 01:46:59;;;;;;;;;;;19.50;91.70;18.90;101053.00;;;;5022348;28;20046;-83
2021/07/15 01:49:26;;;;;;;0.20;0.20;;;19.50;91.80;18.90;101067.00;;;;5043129;28;20234;-83
2021/07/15 01:51:54;;;;;;;;;;;19.50;91.80;18.90;101070.00;;;;5025712;28;20253;-83
2021/07/15 01:54:21;;;;;;;0.00;0.00;;;19.50;91.80;18.90;101075.00;;;;5010620;28;19932;-83
2021/07/15 01:56:50;;;;;;;0.00;0.00;;;19.50;91.70;18.90;101068.00;;;;5025512;28;20106;-83
2021/07/15 01:59:22;;;;;;;0.10;0.10;;;;;18.90;101060.00;;;;5012022;28;20509;-83
2021/07/15 02:01:51;;;;;;;0.10;0.10;;;19.50;92.10;18.90;101054.00;;;;5043093;28;20040;-83
2021/07/15 02:04:17;;;;;;;0.13;0.13;;;19.50;92.00;18.90;101049.00;;;;5039980;28;20051;-83
2021/07/15 02:06:47;;;;;;;0.20;0.20;;;19.50;91.90;18.90;101057.00;;;;5028115;28;20037;-83
2021/07/15 02:09:14;;;;;;;0.52;0.20;;;19.50;91.90;18.90;101072.00;;;;5020146;28;20049;-82
2021/07/15 02:11:41;;;;;;;0.10;0.10;;;19.40;91.80;18.80;101067.00;;;;5015001;28;20048;-83
2021/07/15 02:14:11;;;;;;;0.20;0.20;;;19.40;91.90;18.80;101061.00;;;;5003320;28;20743;-83
2021/07/15 02:16:43;;;;;;;0.10;0.10;;;19.40;91.90;18.80;101060.00;;;;5004475;28;20045;-83
2021/07/15 02:19:10;;;;;;;0.75;0.13;;;19.40;91.70;18.80;101062.00;;;;5026141;28;20531;-83
2021/07/15 02:21:38;;;;;;;0.17;0.17;;;19.40;91.90;18.80;101062.00;;;;5022011;28;20072;-83
2021/07/15 02:24:10;;;;;;;5.28;0.45;;;19.40;91.80;18.80;101073.00;;;;5024128;28;20455;-83
2021/07/15 02:26:38;;;;;;;0.77;0.30;;;19.40;91.80;18.80;101070.00;;;;5023772;28;20102;-83
2021/07/15 02:29:05;;;;;;;0.60;0.30;;;19.40;91.80;18.70;101067.00;;;;5035231;28;20033;-84
2021/07/15 02:31:48;;;;;;;0.70;0.60;;;19.30;92.00;18.70;101067.00;;;;5016143;28;20101;-84
2021/07/15 02:34:32;;;;;;;0.13;0.13;;;19.30;92.00;18.70;101061.00;;;;5031743;28;20072;-84
2021/07/15 02:37:05;;;;;;;0.10;0.10;;;19.30;92.10;18.70;101072.00;;;;5014158;28;20498;-83
2021/07/15 02:39:32;;;;;;;0.63;0.43;;;;;18.70;101071.00;;;;5001324;28;20049;-83
2021/07/15 02:41:59;;;;;;;0.00;0.00;;;;;18.70;101075.00;;;;5034705;28;20039;-83
2021/07/15 02:44:25;;;;;;;;;;;19.30;92.10;18.70;101075.00;;;;5036061;28;20052;-83
2021/07/15 02:46:52;;;;;;;0.00;0.00;;;19.30;92.20;18.70;101081.00;;;;5000206;28;19921;-84
2021/07/15 02:49:18;;;;;;;0.13;0.13;;;19.30;92.10;18.70;101081.00;;;;5032257;28;20128;-84
2021/07/15 02:51:44;;;;;;;0.27;0.27;;;19.30;91.90;18.70;101077.00;;;;5016555;28;20073;-84
2021/07/15 02:54:10;;;;;;;0.30;0.30;;;19.20;92.10;18.60;101073.00;;;;5019457;28;20132;-83
2021/07/15 02:57:03;;;;;;;1.08;0.45;;;19.20;91.90;18.70;101066.00;;;;4985158;28;20053;-83
2021/07/15 03:00:11;;;;;;;0.00;0.00;;;19.20;91.80;18.60;101074.00;;;;5022287;28;20598;-83
2021/07/15 03:02:57;;;;;;;0.08;0.08;;;19.20;92.00;18.60;101071.00;;;;5017101;28;20033;-83
2021/07/15 03:05:47;;;;;;;2.40;0.63;;;19.20;91.90;18.60;101072.00;;;;5029440;28;20045;-83
2021/07/15 03:08:24;;;;;;;0.08;0.08;;;19.20;92.00;18.60;101080.00;;;;5017614;28;20053;-83
2021/07/15 03:10:54;;;;;;;0.13;0.13;;;19.20;92.20;18.60;101079.00;;;;5022605;28;20468;-84
2021/07/15 03:13:20;;;;;;;0.90;0.65;;;19.20;92.50;18.60;101085.00;;;;5003097;28;20289;-81
2021/07/15 03:15:47;;;;;;;0.25;0.17;;;19.20;92.30;18.60;101083.00;;;;5022476;28;20804;-82
2021/07/15 03:18:18;;;;;;;0.28;0.28;;;19.20;92.40;18.60;101082.00;;;;5018031;28;20054;-82
2021/07/15 03:20:46;;;;;;;0.22;0.22;;;19.10;92.20;18.60;101085.00;;;;5024984;28;20719;-82
2021/07/15 03:23:17;;;;;;;0.28;0.28;;;19.10;92.10;18.60;101082.00;;;;5032974;28;20521;-83
2021/07/15 03:25:49;;;;;;;0.10;0.10;;;19.10;92.00;18.60;101076.00;;;;5018039;28;20060;-83
2021/07/15 03:28:18;;;;;;;0.10;0.10;;;;;18.60;101077.00;;;;5007083;28;20037;-83
2021/07/15 03:30:46;;;;;;;0.20;0.20;;;19.20;92.10;18.60;101086.00;;;;5036830;28;20087;-83
2021/07/15 03:33:14;;;;;;;0.10;0.10;;;19.10;92.30;18.50;101102.00;;;;5025108;28;20041;-85
2021/07/15 03:35:42;;;;;;;0.40;0.40;;;19.10;92.00;18.50;101092.00;;;;5001596;28;20127;-85
2021/07/15 03:38:10;;;;;;;0.20;0.20;;;19.10;92.10;18.50;101100.00;;;;5020394;28;20060;-86
2021/07/15 03:40:36;;;;;;;0.10;0.10;;;19.10;91.90;18.50;101104.00;;;;5021656;28;20034;-85
2021/07/15 03:43:03;;;;;;;0.20;0.20;;;19.10;92.50;18.50;101100.00;;;;5020362;28;20059;-85
2021/07/15 03:45:29;;;;;;;0.10;0.10;;;;;18.50;101101.00;;;;5024530;28;20033;-84
2021/07/15 03:47:58;;;;;;;0.00;0.00;;;19.10;92.40;18.50;101095.00;;;;5022316;28;20090;-83
2021/07/15 03:50:29;;;;;;;0.20;0.20;;;19.00;92.10;18.40;101108.00;;;;5034307;28;20069;-84
2021/07/15 03:53:06;;;;;;;0.00;0.00;;;19.00;92.10;18.40;101114.00;;;;5018291;28;20041;-83
2021/07/15 03:55:37;;;;;;;0.10;0.10;;;19.00;92.30;18.30;101111.00;;;;5019565;28;20041;-83
2021/07/15 03:58:08;;;;;;;0.10;0.10;;;18.90;92.20;18.30;101102.00;;;;4986641;28;20060;-83
2021/07/15 04:00:37;;;;;;;0.00;0.00;;;18.90;92.50;18.30;101104.00;;;;5016594;28;20049;-83
2021/07/15 04:03:05;;;;;;;0.35;0.20;;;18.90;92.40;18.30;101111.00;;;;5026576;28;20041;-84
2021/07/15 04:05:32;;;;;;;0.52;0.20;;;18.90;92.40;18.30;101109.00;;;;5019944;28;20037;-84
2021/07/15 04:08:00;;;;;;;0.00;0.00;;;18.90;92.30;18.30;101114.00;;;;5019954;28;20574;-84
2021/07/15 04:10:32;;;;;;;1.20;0.70;;;18.90;92.30;18.30;101121.00;;;;5019846;28;20475;-84
2021/07/15 04:12:59;;;;;;;0.00;0.00;;;;;18.30;101121.00;;;;5018520;28;20052;-84
2021/07/15 04:16:08;;;;;;;0.32;0.30;;;18.90;92.30;18.30;101111.00;;;;5013882;28;20041;-84
2021/07/15 04:18:38;;;;;;;0.28;0.28;;;18.90;92.50;18.30;101109.00;;;;5031372;28;20053;-84
2021/07/15 04:21:06;;;;;;;0.30;0.30;;;18.90;92.20;18.30;101105.00;;;;5015296;28;20045;-84
2021/07/15 04:23:34;;;;;;;0.10;0.10;;;18.90;92.10;18.30;101116.00;;;;5019867;28;20049;-84
2021/07/15 04:26:02;;;;;;;0.10;0.10;;;18.90;92.40;18.30;101115.00;;;;5031724;28;20045;-84
2021/07/15 04:28:28;;;;;;;0.05;0.05;;;18.90;92.40;18.30;101118.00;;;;5022523;28;20045;-84
2021/07/15 04:31:28;;;;;;;0.00;0.00;;;18.90;92.30;18.30;101122.00;;;;5009486;28;21274;-84
2021/07/15 04:33:56;;;;;;;0.10;0.10;;;18.90;92.20;18.30;101120.00;;;;5036170;28;20463;-84
2021/07/15 04:36:24;;;;;;;0.17;0.17;;;18.90;92.30;18.30;101112.00;;;;5014409;28;20052;-84
2021/07/15 04:38:51;;;;;;;0.10;0.10;;;;;18.30;101123.00;;;;5002964;28;20677;-84
2021/07/15 04:41:19;;;;;;;0.05;0.05;;;19.00;92.30;18.30;101115.00;;;;5014442;28;20060;-84
2021/07/15 04:43:48;;;;;;;0.13;0.13;;;18.90;92.40;18.30;101119.00;;;;5034977;28;20053;-84
2021/07/15 04:46:20;;;;;;;0.05;0.05;;;18.90;92.20;18.30;101127.00;;;;5015645;28;20101;-84
2021/07/15 04:48:47;;;;;;;0.08;0.08;;;18.90;92.20;18.30;101128.00;;;;5017967;28;20529;-84
2021/07/15 04:51:16;;;;;;;0.10;0.10;;;;;18.30;101133.00;;;;5016624;28;20029;-84
2021/07/15 04:53:46;;;;;;;0.10;0.10;;;;;18.30;101137.00;;;;5004278;28;20049;-84
2021/07/15 04:56:14;;;;;;;0.20;0.20;;;18.90;92.40;18.30;101138.00;;;;5040744;28;20417;-84
2021/07/15 04:58:44;;;;;;;0.00;0.00;;;18.90;92.30;18.30;101139.00;;;;5037110;28;20040;-84
2021/07/15 05:01:11;;;;;;;6.47;0.20;;;18.80;92.40;18.30;101135.00;;;;5023730;28;20049;-84
2021/07/15 05:03:38;;;;;;;;;;;18.80;92.30;18.30;101143.00;;;;5023549;28;20052;-83
2021/07/15 05:06:07;;;;;;;0.00;0.00;;;18.80;92.40;18.30;101139.00;;;;5006209;28;19967;-84
2021/07/15 05:08:37;;;;;;;0.08;0.08;;;18.80;92.30;18.20;101145.00;;;;5025383;28;20290;-84
2021/07/15 05:11:03;;;;;;;0.50;0.32;;;18.80;92.30;18.20;101145.00;;;;5022499;28;20045;-82
2021/07/15 05:13:30;;;;;;;0.00;0.00;;;;;18.20;101145.00;;;;5039408;28;20051;-82
2021/07/15 05:15:56;;;;;;;0.00;0.00;;;;;18.20;101154.00;;;;5033546;28;20037;-82
2021/07/15 05:18:23;;;;;;;0.20;0.20;;;18.80;92.50;18.20;101148.00;;;;5041576;28;20052;-83
2021/07/15 05:20:49;;;;;;;0.15;0.08;;;;;18.20;101139.00;;;;5007487;28;20120;-83
2021/07/15 05:23:15;;;;;;;0.10;0.10;;;18.80;92.30;18.20;101137.00;;;;5026905;28;20044;-82
2021/07/15 05:25:42;;;;;;;0.20;0.20;;;;;18.20;101153.00;;;;5021449;28;20037;-83
2021/07/15 05:28:08;;;;;;;0.10;0.10;;;18.80;92.60;18.20;101147.00;;;;5024738;28;20795;-82
2021/07/15 05:30:34;;;;;;;0.00;0.00;;;18.80;92.60;18.20;101158.00;;;;5010788;28;20116;-82
2021/07/15 05:33:00;;;;;;;0.00;0.00;;;;;18.20;101168.00;;;;5020444;28;20644;-82
2021/07/15 05:35:28;;;;;;;0.00;0.00;;;;;18.20;101177.00;;;;5012546;28;20126;-83
2021/07/15 05:37:54;;;;;;;0.00;0.00;;;18.80;92.50;18.20;101177.00;;;;5023973;28;20124;-81
2021/07/15 05:40:21;;;;;;;0.10;0.10;;;18.80;92.50;18.20;101179.00;;;;5041228;28;20045;-81
2021/07/15 05:42:47;;;;;;;0.00;0.00;;;18.80;92.50;18.20;101170.00;;;;5022102;28;20063;-80
2021/07/15 05:45:13;;;;;;;0.20;0.20;;;;;18.20;101168.00;;;;4978705;28;20041;-81
2021/07/15 05:47:40;;;;;;;0.08;0.08;;;;;18.10;101167.00;;;;5040624;28;20055;-81
2021/07/15 05:50:06;;;;;;;0.28;0.28;;;;;18.20;101170.00;;;;5036661;28;20076;-81
2021/07/15 05:52:33;;;;;;;0.28;0.28;;;;;18.10;101169.00;;;;5023099;28;20124;-82
2021/07/15 05:54:59;;;;;;;0.00;0.00;;;18.80;92.60;18.20;101164.00;;;;5025976;28;20037;-81
2021/07/15 05:57:26;;;;;;;0.00;0.00;;;;;18.20;101176.00;;;;5026869;28;20075;-81
2021/07/15 05:59:52;;;;;;;0.30;0.30;;;18.80;92.50;18.20;101172.00;;;;5044519;28;20289;-81
2021/07/15 06:02:18;;;;;;;0.43;0.43;;;18.80;92.50;18.20;101173.00;;;;5043221;28;20136;-82
2021/07/15 06:04:44;;;;;;;0.00;0.00;;;18.80;92.60;18.20;101176.00;;;;5010054;28;20140;-82
2021/07/15 06:07:11;;;;;;;0.08;0.08;;;;;18.20;101179.00;;;;5037083;28;20048;-82
2021/07/15 06:09:37;;;;;;;0.00;0.00;;;18.80;92.60;18.20;101186.00;;;;5025221;28;20069;-82
2021/07/15 06:12:03;;;;;;;0.00;0.00;;;18.80;92.60;18.20;101183.00;;;;5039493;28;20041;-81
2021/07/15 06:14:31;;;;;;;0.10;0.10;;;;;18.20;101182.00;;;;5022760;28;20037;-81
2021/07/15 06:16:57;;;;;;;0.17;0.17;;;18.90;92.50;18.20;101179.00;;;;5026588;28;20055;-80
2021/07/15 06:19:24;;;;;;;0.13;0.08;;;18.80;92.50;18.20;101178.00;;;;5015713;28;20450;-81
2021/07/15 06:21:50;;;;;;;0.10;0.10;;;;;18.20;101187.00;;;;5024714;28;20084;-81
2021/07/15 06:24:17;;;;;;;0.10;0.10;;;;;18.20;101182.00;;;;5038859;28;20048;-81
2021/07/15 06:26:44;;;;;;;0.25;0.13;;;;;18.20;101190.00;;;;5010122;28;20048;-81
2021/07/15 06:29:11;;;;;;;0.08;0.08;;;18.80;92.40;18.20;101193.00;;;;5010857;28;20115;-81
2021/07/15 06:31:38;;;;;;;0.00;0.00;;;18.80;92.60;18.20;101212.00;;;;5009673;28;20582;-80
2021/07/15 06:34:05;;;;;;;0.10;0.10;;;;;18.20;101222.00;;;;5023361;28;20471;-81
2021/07/15 06:36:34;;;;;;;;;;;18.80;92.50;18.20;101209.00;;;;4995006;28;20831;-80
2021/07/15 06:39:01;;;;;;;0.00;0.00;;;;;18.20;101212.00;;;;5046539;28;19951;-81
2021/07/15 06:41:27;;;;;;;0.35;0.20;;;;;18.20;101206.00;;;;5039295;28;20041;-81
2021/07/15 06:43:54;;;;;;;0.52;0.30;;;;;18.10;101210.00;;;;5040828;28;20041;-81
2021/07/15 06:46:22;;;;;;;;;;;18.80;92.70;18.20;101206.00;;;;5027035;28;20041;-81
2021/07/15 06:48:49;;;;;;;0.15;0.10;;;;;18.10;101215.00;;;;5026350;28;19925;-81
2021/07/15 06:51:15;;;;;;;0.15;0.15;;;;;18.10;101215.00;;;;5006837;28;20172;-79
2021/07/15 06:53:41;;;;;;;0.10;0.10;;;;;18.20;101217.00;;;;5035046;28;20041;-81
2021/07/15 06:56:08;;;;;;;0.35;0.35;;;;;18.20;101222.00;;;;4984348;28;20043;-80
2021/07/15 06:58:35;;;;;;;0.80;0.65;;;;;18.20;101226.00;;;;5011933;28;20056;-80
2021/07/15 07:01:01;;;;;;;0.10;0.10;;;;;18.20;101241.00;;;;5020170;28;20488;-80
2021/07/15 07:03:27;;;;;;;0.00;0.00;;;;;18.10;101237.00;;;;5020528;28;20088;-80
2021/07/15 07:05:54;;;;;;;0.30;0.30;;;18.70;92.60;18.20;101235.00;;;;5014062;28;20106;-80
2021/07/15 07:08:20;;;;;;;0.00;0.00;;;;;18.20;101242.00;;;;5003966;28;20557;-80
2021/07/15 07:10:46;;;;;;;0.10;0.10;;;18.80;92.70;18.20;101234.00;;;;5015001;28;20041;-79
2021/07/15 07:13:13;;;;;;;0.35;0.35;;;;;18.20;101250.00;;;;5013893;28;20124;-80
2021/07/15 07:15:39;;;;;;;0.10;0.10;;;18.80;92.80;18.20;101234.00;;;;4999116;28;20454;-79
2021/07/15 07:18:05;;;;;;;0.08;0.08;;;;;18.20;101243.00;;;;5021078;28;20072;-80
2021/07/15 07:20:33;;;;;;;0.00;0.00;;;18.80;92.70;18.20;101237.00;;;;5004778;28;20532;-80
2021/07/15 07:23:00;;;;;;;0.15;0.05;;;;;18.20;101240.00;;;;5022808;28;20192;-80
2021/07/15 07:25:26;;;;;;;0.00;0.00;;;;;18.30;101252.00;;;;5039636;28;20041;-81
2021/07/15 07:27:53;;;;;;;0.00;0.00;;;;;18.30;101251.00;;;;5005497;28;20491;-80
2021/07/15 07:30:19;;;;;;;0.05;0.05;;;;;18.40;101258.00;;;;5015570;28;20029;-81
2021/07/15 07:32:46;;;;;;;0.10;0.10;;;;;18.40;101265.00;;;;5006136;28;20045;-80
2021/07/15 07:35:15;;;;;;;0.00;0.00;;;;;18.40;101261.00;;;;5016931;28;20044;-80
2021/07/15 07:37:42;;;;;;;0.10;0.10;;;;;18.40;101253.00;;;;5016634;28;20080;-80
2021/07/15 07:40:10;;;;;;;0.10;0.10;;;19.10;92.40;18.40;101259.00;;;;5032578;28;20120;-81
2021/07/15 07:42:37;;;;;;;0.17;0.17;;;;;18.40;101258.00;;;;5005897;28;20124;-80
2021/07/15 07:45:06;;;;;;;0.22;0.22;;;19.10;92.50;18.40;101249.00;;;;5010275;28;20049;-82
2021/07/15 07:47:33;;;;;;;0.82;0.30;;;;;18.50;101254.00;;;;4999098;28;20042;-79
2021/07/15 07:49:59;;;;;;;0.00;0.00;;;19.10;92.40;18.50;101263.00;;;;5013705;28;20086;-80
2021/07/15 07:52:25;;;;;;;0.73;0.43;;;19.10;92.40;18.40;101264.00;;;;5015965;28;20052;-79
2021/07/15 07:54:51;;;;;;;0.00;0.00;;;19.10;92.40;18.40;101269.00;;;;5016979;28;20133;-80
2021/07/15 07:57:17;;;;;;;0.75;0.30;;;19.10;92.50;18.40;101272.00;;;;4982379;28;20048;-80
2021/07/15 07:59:44;;;;;;;0.30;0.30;;;;;18.40;101278.00;;;;4994535;28;20528;-80
2021/07/15 08:02:10;;;;;;;0.35;0.35;;;19.00;92.40;18.40;101279.00;;;;4998408;28;20639;-80
2021/07/15 08:04:36;;;;;;;0.08;0.05;;;;;18.40;101288.00;;;;5012519;28;20045;-80
2021/07/15 08:07:04;;;;;;;0.10;0.10;;;19.00;92.40;18.30;101269.00;;;;5011309;28;20523;-80
2021/07/15 08:09:32;;;;;;;0.00;0.00;;;;;18.30;101293.00;;;;4996171;28;20168;-80
2021/07/15 08:11:59;;;;;;;0.38;0.10;;;;;18.30;101294.00;;;;5008037;28;20063;-80
2021/07/15 08:14:26;;;;;;;0.03;0.03;;;;;18.30;101297.00;;;;5027148;28;20466;-79
2021/07/15 08:16:52;;;;;;;0.00;0.00;;;;;18.30;101292.00;;;;5028304;28;20609;-80
2021/07/15 08:19:20;;;;;;;0.10;0.10;;;;;18.30;101299.00;;;;5014340;28;20394;-80
2021/07/15 08:21:46;;;;;;;0.10;0.10;;;;;18.20;101294.00;;;;5011084;28;20036;-80
2021/07/15 08:24:13;;;;;;;0.43;0.30;;;;;18.20;101300.00;;;;5034671;28;20063;-80
2021/07/15 08:26:39;;;;;;;0.35;0.35;;;;;18.20;101295.00;;;;5005863;28;20037;-81
2021/07/15 08:29:05;;;;;;;0.20;0.20;;;;;18.20;101299.00;;;;5007710;28;20080;-81
2021/07/15 08:31:32;;;;;;;0.22;0.15;;;;;18.20;101299.00;;;;4999322;28;20644;-80
2021/07/15 08:33:58;;;;;;;0.20;0.20;;;;;18.20;101299.00;;;;4994967;28;20036;-80
2021/07/15 08:36:28;;;;;;;0.38;0.35;;;;;18.20;101306.00;;;;5005440;28;20056;-81
2021/07/15 08:38:54;;;;;;;0.20;0.20;;;;;18.20;101310.00;;;;5011734;28;20068;-80
2021/07/15 08:41:21;;;;;;;0.63;0.63;;;;;18.20;101306.00;;;;5014185;28;20068;-81
2021/07/15 08:43:47;;;;;;;;;;;;;18.20;101314.00;;;;5023230;28;20123;-79
2021/07/15 08:46:15;;;;;;;0.17;0.17;;;18.80;92.80;18.20;101304.00;;;;5009475;28;19964;-80
2021/07/15 08:48:46;;;;;;;0.15;0.15;;;18.80;92.70;18.20;101323.00;;;;5012486;28;20778;-80
2021/07/15 08:51:15;;;;;;;0.00;0.00;;;18.80;92.90;18.20;101330.00;;;;5028982;28;20052;-80
2021/07/15 08:53:44;;;;;;;0.00;0.00;;;18.90;92.40;18.30;101327.00;;;;5034265;28;20581;-81
2021/07/15 08:58:59;;;;;;;0.45;0.10;;;;;18.30;101339.00;;;;5017146;28;20049;-80
2021/07/15 09:01:33;;;;;;;0.20;0.20;;;18.90;92.30;18.30;101338.00;;;;5009047;28;20041;-80
2021/07/15 09:04:01;;;;;;;0.00;0.00;;;18.90;92.50;18.20;101339.00;;;;5033709;28;20074;-80
2021/07/15 09:06:28;;;;;;;0.00;0.00;;;;;18.30;101329.00;;;;5000201;28;20045;-80
2021/07/15 09:08:55;;;;;;;0.10;0.10;;;18.90;92.40;18.30;101332.00;;;;5009628;28;20040;-79
2021/07/15 09:11:22;;;;;;;0.52;0.25;;;;;18.30;101347.00;;;;5031801;28;20056;-80
2021/07/15 09:13:49;;;;;;;0.15;0.10;;;18.90;92.40;18.30;101345.00;;;;5028544;28;20461;-79
2021/07/15 09:16:15;;;;;;;;;;;18.90;92.60;18.30;101349.00;;;;5019403;28;20033;-80
2021/07/15 09:18:57;;;;;;;0.08;0.08;;;18.90;92.70;18.30;101343.00;;;;5038663;28;19925;-80
2021/07/15 09:21:25;;;;;;;0.25;0.10;;;;;18.20;101356.00;;;;5006372;28;20040;-80
2021/07/15 09:23:52;;;;;;;0.03;0.03;;;18.80;92.90;18.20;101367.00;;;;5005098;28;20056;-79
2021/07/15 09:26:18;;;;;;;0.40;0.40;;;;;18.30;101360.00;;;;5011550;28;20096;-80
2021/07/15 09:28:45;;;;;;;0.10;0.08;;;;;18.30;101365.00;;;;4996252;28;20151;-80
2021/07/15 09:31:22;;;;;;;0.05;0.05;;;18.90;92.30;18.30;101365.00;;;;5002571;28;20095;-80
2021/07/15 09:33:48;;;;;;;;;;;18.90;92.50;18.30;101363.00;;;;4991887;28;20045;-80
2021/07/15 09:36:19;;;;;;;0.00;0.00;;;18.90;92.50;18.30;101377.00;;;;5013573;28;19970;-81
2021/07/15 09:38:47;;;;;;;0.20;0.20;;;18.90;92.40;18.30;101366.00;;;;5000076;28;20572;-79
2021/07/15 09:41:17;;;;;;;0.95;0.08;;;19.00;92.50;18.30;101351.00;;;;5034991;28;20049;-80
2021/07/15 09:43:44;;;;;;;0.20;0.10;;;;;18.30;101376.00;;;;4998131;28;20128;-79
2021/07/15 09:46:13;;;;;;;0.00;0.00;;;18.90;92.40;18.30;101377.00;;;;5034777;28;20041;-80
2021/07/15 09:48:48;;;;;;;0.00;0.00;;;19.00;92.40;18.30;101380.00;;;;5013515;28;20438;-79
2021/07/15 09:51:16;;;;;;;0.00;0.00;;;;;18.30;101365.00;;;;5013618;28;20041;-79
2021/07/15 09:53:43;;;;;;;0.40;0.10;;;;;18.30;101374.00;;;;4984215;28;20628;-80
2021/07/15 09:56:17;;;;;;;0.00;0.00;;;;;18.30;101379.00;;;;5033592;28;20065;-79
2021/07/15 09:58:49;;;;;;;0.00;0.00;;;19.00;92.50;18.40;101375.00;;;;5034851;28;20041;-80
2021/07/15 10:01:19;;;;;;;1.77;0.17;;;;;18.40;101374.00;;;;5017415;28;20052;-80
2021/07/15 10:03:49;;;;;;;0.25;0.25;;;;;18.40;101383.00;;;;5014446;28;20519;-80
2021/07/15 10:06:16;;;;;;;0.70;0.30;;;19.10;92.40;18.50;101369.00;;;;5002835;28;20053;-80
2021/07/15 10:08:46;;;;;;;0.10;0.10;;;19.10;92.50;18.60;101360.00;;;;5032249;28;20144;-79
2021/07/15 10:11:26;;;;;;;0.43;0.43;;;19.20;92.30;18.60;101372.00;;;;5002375;28;20093;-80
2021/07/15 10:14:09;;;;;;;0.08;0.00;;;19.20;92.20;18.60;101394.00;;;;5012315;28;20044;-80
2021/07/15 10:16:41;;;;;;;0.00;0.00;;;19.20;92.20;18.60;101375.00;;;;5019813;28;20044;-79
2021/07/15 10:19:18;;;;;;;0.15;0.08;;;19.20;92.10;18.70;101377.00;;;;5017233;28;20530;-80
2021/07/15 10:21:44;;;;;;;0.65;0.55;;;;;18.70;101390.00;;;;5015712;28;20045;-79
2021/07/15 10:24:25;;;;;;;0.20;0.20;;;19.30;92.20;18.60;101384.00;;;;5034706;28;20045;-79
2021/07/15 10:26:55;;;;;;;0.00;0.00;;;19.20;92.20;18.60;101371.00;;;;5016108;28;20051;-80
2021/07/15 10:29:24;;;;;;;0.08;0.08;;;19.20;92.20;18.60;101383.00;;;;5034130;28;20071;-80
2021/07/15 10:31:52;;;;;;;0.20;0.10;;;;;18.50;101401.00;;;;5039634;28;20110;-80
2021/07/15 10:34:19;;;;;;;0.00;0.00;;;;;18.50;101399.00;;;;5022005;28;20064;-80
2021/07/15 10:36:46;;;;;;;0.30;0.30;;;19.10;92.40;18.50;101380.00;;;;5034476;28;20737;-79
2021/07/15 10:39:14;;;;;;;;;;;19.10;92.60;18.40;101402.00;;;;5020204;28;20041;-80
2021/07/15 10:41:44;;;;;;;0.20;0.20;;;;;18.40;101403.00;;;;5019567;28;19925;-80
2021/07/15 10:44:11;;;;;;;0.00;0.00;;;19.00;92.30;18.40;101422.00;;;;5017125;28;20045;-79
2021/07/15 10:46:37;;;;;;;0.08;0.08;;;19.00;92.30;18.30;101416.00;;;;5006468;28;20064;-79
2021/07/15 10:49:07;;;;;;;2.42;1.58;;;;;18.30;101410.00;;;;5036966;28;20037;-79
2021/07/15 10:51:38;;;;;;;0.00;0.00;;;;;18.30;101421.00;;;;5018331;28;20256;-80
2021/07/15 10:54:05;;;;;;;0.00;0.00;;;;;18.30;101415.00;;;;5000889;28;20159;-80
2021/07/15 10:56:32;;;;;;;0.00;0.00;;;;;18.30;101424.00;;;;4994223;28;20405;-80
2021/07/15 10:58:58;;;;;;;0.20;0.20;;;;;18.30;101432.00;;;;5010354;28;20052;-80
2021/07/15 11:01:37;;;;;;;0.00;0.00;;;18.90;92.40;18.30;101421.00;;;;4981171;28;20036;-79
2021/07/15 11:04:17;;;;;;;0.13;0.13;;;19.10;92.50;18.40;101419.00;;;;4998799;28;21314;-80
2021/07/15 11:06:51;;;;;;;0.40;0.40;;;18.90;92.50;18.30;101406.00;;;;5000571;28;20072;-80
2021/07/15 11:09:24;;;;;;;0.00;0.00;;;;;18.40;101425.00;;;;5006994;28;20037;-80
2021/07/15 11:11:51;;;;;;;0.10;0.10;;;18.90;92.40;18.40;101422.00;;;;5015080;28;20042;-80
2021/07/15 11:14:34;;;;;;;0.03;0.03;;;;;18.40;101428.00;;;;5012167;28;20041;-79
2021/07/15 11:17:01;;;;;;;0.08;0.08;;;19.00;92.50;18.30;101427.00;;;;4988986;28;20134;-80
2021/07/15 11:20:14;;;;;;;0.22;0.20;;;19.00;92.40;18.30;101430.00;;;;4984051;28;20373;-80
2021/07/15 11:22:56;;;;;;;0.17;0.10;;;;;18.40;101439.00;;;;4980586;28;20056;-80
2021/07/15 11:25:32;;;;;;;0.00;0.00;;;19.50;92.80;18.50;101428.00;;;;5002701;28;20038;-81
2021/07/15 11:28:18;;;;;;;0.00;0.00;;;19.00;92.40;18.40;101438.00;;;;5022860;28;20048;-81